createdAt,value
2017-11-01T00:01:52.650Z,90.10
2017-11-01T00:04:20.080Z,90.10
2017-11-01T00:06:47.541Z,90.10
2017-11-01T00:09:15.001Z,90.00
2017-11-01T00:11:42.429Z,89.90
2017-11-01T00:14:09.873Z,90.00
2017-11-01T00:22:30.973Z,89.80
2017-11-01T00:24:58.405Z,89.70
2017-11-01T00:27:25.862Z,89.20
2017-11-01T00:29:53.308Z,89.50
2017-11-01T00:32:20.758Z,89.90
2017-11-01T00:34:48.237Z,89.30
2017-11-01T00:37:15.675Z,89.10
2017-11-01T00:39:43.099Z,89.30
2017-11-01T00:42:11.324Z,89.80
2017-11-01T00:44:38.772Z,89.10
2017-11-01T00:47:06.231Z,89.10
2017-11-01T00:49:33.658Z,89.00
2017-11-01T00:52:01.906Z,89.10
2017-11-01T00:54:29.374Z,89.00
2017-11-01T00:56:56.793Z,89.30
2017-11-01T00:59:24.241Z,89.70
2017-11-01T01:01:51.677Z,90.00
2017-11-01T01:04:19.137Z,90.20
2017-11-01T01:06:46.583Z,90.50
2017-11-01T01:09:21.670Z,91.10
2017-11-01T01:11:49.101Z,91.30
2017-11-01T01:14:16.537Z,91.80
2017-11-01T01:16:43.965Z,92.20
2017-11-01T01:19:12.173Z,92.80
2017-11-01T01:21:49.401Z,92.80
2017-11-01T01:24:22.899Z,93.00
2017-11-01T01:26:50.333Z,92.90
2017-11-01T01:29:17.769Z,93.10
2017-11-01T01:31:45.213Z,92.90
2017-11-01T01:34:13.422Z,93.20
2017-11-01T01:36:40.893Z,93.20
2017-11-01T01:39:08.321Z,93.20
2017-11-01T01:41:35.785Z,93.30
2017-11-01T01:44:03.210Z,93.40
2017-11-01T01:46:31.419Z,93.80
2017-11-01T01:48:58.846Z,93.80
2017-11-01T01:51:27.040Z,93.70
2017-11-01T01:53:54.489Z,93.70
2017-11-01T01:56:21.953Z,93.40
2017-11-01T01:58:49.381Z,93.30
2017-11-01T02:01:17.587Z,93.50
2017-11-01T02:03:45.041Z,93.50
2017-11-01T02:06:12.479Z,93.60
2017-11-01T02:08:40.686Z,93.60
2017-11-01T02:11:08.122Z,93.60
2017-11-01T02:13:35.570Z,93.70
2017-11-01T02:16:03.790Z,93.80
2017-11-01T02:18:31.240Z,93.80
2017-11-01T02:21:12.118Z,93.80
2017-11-01T02:23:39.566Z,94.10
2017-11-01T02:26:07.029Z,94.20
2017-11-01T02:28:34.475Z,94.10
2017-11-01T02:31:01.950Z,94.00
2017-11-01T02:33:29.397Z,94.00
2017-11-01T02:35:56.838Z,94.00
2017-11-01T02:38:24.279Z,94.20
2017-11-01T02:40:52.489Z,94.30
2017-11-01T02:43:19.922Z,94.30
2017-11-01T02:45:47.374Z,94.10
2017-11-01T02:48:14.809Z,94.10
2017-11-01T02:50:43.008Z,93.90
2017-11-01T02:53:10.506Z,93.90
2017-11-01T02:55:37.953Z,94.00
2017-11-01T02:58:05.385Z,94.00
2017-11-01T03:00:36.740Z,94.10
2017-11-01T03:03:04.178Z,94.20
2017-11-01T03:05:31.626Z,94.10
2017-11-01T03:07:59.835Z,94.30
2017-11-01T03:10:27.326Z,94.30
2017-11-01T03:12:54.790Z,94.10
2017-11-01T03:15:22.226Z,94.20
2017-11-01T03:17:49.705Z,94.30
2017-11-01T03:20:17.258Z,94.40
2017-11-01T03:22:44.702Z,94.50
2017-11-01T03:25:12.171Z,94.40
2017-11-01T03:27:39.630Z,94.50
2017-11-01T03:30:07.091Z,94.50
2017-11-01T03:32:34.521Z,94.40
2017-11-01T03:35:01.971Z,94.60
2017-11-01T03:37:29.434Z,94.70
2017-11-01T03:39:56.884Z,94.70
2017-11-01T03:42:25.072Z,94.90
2017-11-01T03:44:52.575Z,94.60
2017-11-01T03:47:20.078Z,94.80
2017-11-01T03:49:47.515Z,94.80
2017-11-01T03:52:14.962Z,94.50
2017-11-01T03:54:42.413Z,94.50
2017-11-01T03:57:10.654Z,94.60
2017-11-01T03:59:38.090Z,94.60
2017-11-01T04:02:05.525Z,94.60
2017-11-01T04:04:32.960Z,94.70
2017-11-01T04:07:01.186Z,95.20
2017-11-01T04:09:28.635Z,95.20
2017-11-01T04:11:56.832Z,95.00
2017-11-01T04:14:24.278Z,95.00
2017-11-01T04:16:53.608Z,95.10
2017-11-01T04:19:22.809Z,95.30
2017-11-01T04:21:50.236Z,95.30
2017-11-01T04:24:17.693Z,95.20
2017-11-01T04:26:50.982Z,95.20
2017-11-01T04:29:18.430Z,95.50
2017-11-01T04:31:45.849Z,95.20
2017-11-01T04:34:14.048Z,95.30
2017-11-01T04:36:41.469Z,95.30
2017-11-01T04:39:09.668Z,95.00
2017-11-01T04:41:55.865Z,95.00
2017-11-01T04:44:23.301Z,95.00
2017-11-01T04:46:51.494Z,95.00
2017-11-01T04:49:18.929Z,95.00
2017-11-01T04:51:47.144Z,95.00
2017-11-01T04:54:14.580Z,94.90
2017-11-01T04:56:42.063Z,95.10
2017-11-01T04:59:09.516Z,95.00
2017-11-01T05:01:37.850Z,95.10
2017-11-01T05:04:05.285Z,95.20
2017-11-01T05:06:32.725Z,95.30
2017-11-01T05:09:00.169Z,95.10
2017-11-01T05:11:39.282Z,95.20
2017-11-01T05:14:12.384Z,95.40
2017-11-01T05:16:44.800Z,95.10
2017-11-01T05:19:19.312Z,95.00
2017-11-01T05:21:46.746Z,95.00
2017-11-01T05:24:14.185Z,95.00
2017-11-01T05:26:41.612Z,95.10
2017-11-01T05:29:09.816Z,95.30
2017-11-01T05:34:31.010Z,95.20
2017-11-01T05:37:01.958Z,95.20
2017-11-01T05:39:29.389Z,95.20
2017-11-01T05:41:56.826Z,95.60
2017-11-01T05:44:24.260Z,95.30
2017-11-01T05:46:51.709Z,95.20
2017-11-01T05:49:19.165Z,95.40
2017-11-01T05:51:47.365Z,95.30
2017-11-01T05:54:14.800Z,95.30
2017-11-01T05:56:42.225Z,95.20
2017-11-01T05:59:10.424Z,94.80
2017-11-01T06:01:37.865Z,94.70
2017-11-01T06:04:06.061Z,94.50
2017-11-01T06:06:33.501Z,94.50
2017-11-01T06:09:01.708Z,94.20
2017-11-01T06:11:29.313Z,94.20
2017-11-01T06:13:56.737Z,94.30
2017-11-01T06:16:24.166Z,94.20
2017-11-01T06:18:51.616Z,94.20
2017-11-01T06:21:19.040Z,94.10
2017-11-01T06:23:47.394Z,94.20
2017-11-01T06:26:14.831Z,94.10
2017-11-01T06:28:43.108Z,93.80
2017-11-01T06:31:12.464Z,94.10
2017-11-01T06:33:39.905Z,94.00
2017-11-01T06:36:07.336Z,93.90
2017-11-01T06:38:34.779Z,94.00
2017-11-01T06:41:02.221Z,94.10
2017-11-01T06:43:29.655Z,93.90
2017-11-01T06:45:57.076Z,93.90
2017-11-01T06:48:24.545Z,93.90
2017-11-01T06:50:51.977Z,93.70
2017-11-01T06:53:19.429Z,94.20
2017-11-01T06:55:46.874Z,94.30
2017-11-01T06:58:14.303Z,94.40
2017-11-01T07:00:42.556Z,94.20
2017-11-01T07:03:11.761Z,94.20
2017-11-01T07:05:40.148Z,94.20
2017-11-01T07:08:08.350Z,94.20
2017-11-01T07:10:35.792Z,94.10
2017-11-01T07:13:03.225Z,94.10
2017-11-01T07:15:30.664Z,94.20
2017-11-01T07:17:58.103Z,94.10
2017-11-01T07:20:25.543Z,94.30
2017-11-01T07:22:52.970Z,94.30
2017-11-01T07:25:21.176Z,94.00
2017-11-01T07:27:48.601Z,94.00
2017-11-01T07:30:16.817Z,93.90
2017-11-01T07:32:44.246Z,93.90
2017-11-01T07:35:11.678Z,94.00
2017-11-01T07:37:39.121Z,94.30
2017-11-01T07:40:06.553Z,94.10
2017-11-01T07:42:33.996Z,94.30
2017-11-01T07:45:01.424Z,94.20
2017-11-01T07:47:28.856Z,93.80
2017-11-01T07:50:06.118Z,94.30
2017-11-01T07:52:33.563Z,94.00
2017-11-01T07:55:00.989Z,93.70
2017-11-01T07:57:28.429Z,93.90
2017-11-01T07:59:56.689Z,93.50
2017-11-01T08:02:24.140Z,93.50
2017-11-01T08:04:51.571Z,93.50
2017-11-01T08:07:19.010Z,93.30
2017-11-01T08:09:46.453Z,93.20
2017-11-01T08:12:14.640Z,92.90
2017-11-01T08:14:42.104Z,92.90
2017-11-01T08:17:09.545Z,93.10
2017-11-01T08:19:36.980Z,93.20
2017-11-01T08:22:05.262Z,92.40
2017-11-01T08:24:33.453Z,92.60
2017-11-01T08:27:00.909Z,92.60
2017-11-01T08:29:28.342Z,91.80
2017-11-01T08:31:56.569Z,91.70
2017-11-01T08:34:27.151Z,91.70
2017-11-01T08:36:55.377Z,92.10
2017-11-01T08:39:22.815Z,92.10
2017-11-01T08:41:51.364Z,92.10
2017-11-01T08:44:30.057Z,91.40
2017-11-01T08:46:57.510Z,91.40
2017-11-01T08:49:24.960Z,91.80
2017-11-01T08:51:53.482Z,91.40
2017-11-01T08:54:21.695Z,91.50
2017-11-01T08:56:49.129Z,91.50
2017-11-01T08:59:16.568Z,91.40
2017-11-01T09:01:44.842Z,91.20
2017-11-01T09:04:13.133Z,91.00
2017-11-01T09:06:41.366Z,91.10
2017-11-01T09:09:08.813Z,91.10
2017-11-01T09:11:36.253Z,91.20
2017-11-01T09:14:03.698Z,91.00
2017-11-01T09:16:31.132Z,90.10
2017-11-01T09:18:59.344Z,90.50
2017-11-01T09:21:26.794Z,90.50
2017-11-01T09:23:57.295Z,90.50
2017-11-01T09:26:25.503Z,89.40
2017-11-01T09:28:52.945Z,89.40
2017-11-01T09:31:20.381Z,89.00
2017-11-01T09:33:48.580Z,89.50
2017-11-01T09:36:16.021Z,89.30
2017-11-01T09:38:43.462Z,87.30
2017-11-01T09:41:10.900Z,85.10
2017-11-01T09:43:38.336Z,77.60
2017-11-01T09:46:05.851Z,73.90
2017-11-01T09:48:34.039Z,67.00
2017-11-01T09:51:01.491Z,66.90
2017-11-01T09:53:29.683Z,62.20
2017-11-01T09:55:57.121Z,62.10
2017-11-01T09:58:24.569Z,58.80
2017-11-01T10:00:52.013Z,56.40
2017-11-01T10:03:19.440Z,55.90
2017-11-01T10:05:46.901Z,51.40
2017-11-01T10:08:14.333Z,50.90
2017-11-01T10:10:41.774Z,48.50
2017-11-01T10:13:17.562Z,46.70
2017-11-01T10:15:45.002Z,46.50
2017-11-01T10:18:12.447Z,44.70
2017-11-01T10:20:39.882Z,46.30
2017-11-01T10:23:07.315Z,47.50
2017-11-01T10:25:34.748Z,49.50
2017-11-01T10:28:02.188Z,48.90
2017-11-01T10:30:29.634Z,47.70
2017-11-01T10:32:57.181Z,48.30
2017-11-01T10:35:24.621Z,49.40
2017-11-01T10:37:52.053Z,45.20
2017-11-01T10:40:19.490Z,46.90
2017-11-01T10:42:46.921Z,45.90
2017-11-01T10:45:14.380Z,46.00
2017-11-01T10:47:41.809Z,46.60
2017-11-01T10:50:09.253Z,43.10
2017-11-01T10:52:40.909Z,45.70
2017-11-01T10:55:17.254Z,45.60
2017-11-01T10:57:44.781Z,45.60
2017-11-01T11:00:12.981Z,44.90
2017-11-01T11:02:47.255Z,44.90
2017-11-01T11:05:14.717Z,46.60
2017-11-01T11:07:42.175Z,47.60
2017-11-01T11:10:09.632Z,50.20
2017-11-01T11:12:37.133Z,52.20
2017-11-01T11:15:25.003Z,54.50
2017-11-01T11:17:53.263Z,58.80
2017-11-01T11:20:29.013Z,58.80
2017-11-01T11:22:56.584Z,60.00
2017-11-01T11:25:24.805Z,62.50
2017-11-01T11:27:52.262Z,62.50
2017-11-01T11:30:19.714Z,62.90
2017-11-01T11:32:47.207Z,65.00
2017-11-01T11:35:14.670Z,66.50
2017-11-01T11:37:42.127Z,68.30
2017-11-01T11:40:09.565Z,69.40
2017-11-01T11:42:37.018Z,70.10
2017-11-01T11:45:04.496Z,70.60
2017-11-01T11:47:31.958Z,69.80
2017-11-01T11:49:59.405Z,70.90
2017-11-01T11:52:26.851Z,65.00
2017-11-01T11:54:54.303Z,66.10
2017-11-01T11:57:21.767Z,67.70
2017-11-01T11:59:49.201Z,67.40
2017-11-01T12:02:16.648Z,68.90
2017-11-01T12:05:34.909Z,69.70
2017-11-01T12:08:02.418Z,69.20
2017-11-01T12:10:29.856Z,68.60
2017-11-01T12:12:57.325Z,70.60
2017-11-01T12:15:27.872Z,70.20
2017-11-01T12:17:55.410Z,68.10
2017-11-01T12:20:28.920Z,66.70
2017-11-01T12:22:56.399Z,65.40
2017-11-01T12:25:24.835Z,66.80
2017-11-01T12:27:52.293Z,66.30
2017-11-01T12:30:19.826Z,65.50
2017-11-01T12:32:47.276Z,68.60
2017-11-01T12:35:14.696Z,65.90
2017-11-01T12:37:42.947Z,68.90
2017-11-01T12:40:10.398Z,68.90
2017-11-01T12:42:37.855Z,67.20
2017-11-01T12:45:05.323Z,67.70
2017-11-01T12:47:32.768Z,69.40
2017-11-01T12:50:00.202Z,67.80
2017-11-01T12:52:27.657Z,68.00
2017-11-01T12:54:55.904Z,66.00
2017-11-01T12:57:23.450Z,66.00
2017-11-01T12:59:52.434Z,66.90
2017-11-01T13:02:19.906Z,66.90
2017-11-01T13:04:47.413Z,68.90
2017-11-01T13:07:14.926Z,68.90
2017-11-01T13:09:43.130Z,65.60
2017-11-01T13:12:10.582Z,65.50
2017-11-01T13:14:38.103Z,68.00
2017-11-01T13:17:09.797Z,67.70
2017-11-01T13:19:37.260Z,66.10
2017-11-01T13:22:04.689Z,65.50
2017-11-01T13:24:32.891Z,66.60
2017-11-01T13:27:04.424Z,66.60
2017-11-01T13:29:31.870Z,66.10
2017-11-01T13:32:19.030Z,65.20
2017-11-01T13:34:46.501Z,65.20
2017-11-01T13:37:13.974Z,66.90
2017-11-01T13:39:41.457Z,66.40
2017-11-01T13:42:08.898Z,65.40
2017-11-01T13:44:36.342Z,66.70
2017-11-01T13:47:26.567Z,66.20
2017-11-01T13:49:55.089Z,65.50
2017-11-01T13:52:22.785Z,65.50
2017-11-01T13:54:50.264Z,65.50
2017-11-01T13:57:18.466Z,65.00
2017-11-01T13:59:45.901Z,65.00
2017-11-01T14:02:14.839Z,66.10
2017-11-01T14:04:42.344Z,68.80
2017-11-01T14:07:12.166Z,69.00
2017-11-01T14:09:39.914Z,69.00
2017-11-01T14:12:07.806Z,70.00
2017-11-01T14:14:36.245Z,70.60
2017-11-01T14:17:05.575Z,70.50
2017-11-01T14:19:41.217Z,70.50
2017-11-01T14:22:14.809Z,70.40
2017-11-01T14:27:22.931Z,70.80
2017-11-01T14:29:51.760Z,71.30
2017-11-01T14:32:37.770Z,71.90
2017-11-01T14:38:05.689Z,71.50
2017-11-01T14:40:33.141Z,71.10
2017-11-01T14:43:00.585Z,71.90
2017-11-01T14:45:46.252Z,71.60
2017-11-01T14:48:13.686Z,71.60
2017-11-01T14:50:41.130Z,72.70
2017-11-01T14:53:09.379Z,72.20
2017-11-01T14:55:38.611Z,72.10
2017-11-01T14:58:07.026Z,72.90
2017-11-01T15:00:34.456Z,72.70
2017-11-01T15:03:01.894Z,73.10
2017-11-01T15:05:30.109Z,73.50
2017-11-01T15:07:57.560Z,73.50
2017-11-01T15:10:25.001Z,73.80
2017-11-01T15:12:53.469Z,74.00
2017-11-01T15:15:21.676Z,73.80
2017-11-01T15:17:49.107Z,73.80
2017-11-01T15:20:17.314Z,74.30
2017-11-01T15:22:44.748Z,74.20
2017-11-01T15:25:12.419Z,74.20
2017-11-01T15:27:39.841Z,74.90
2017-11-01T15:30:08.042Z,75.30
2017-11-01T15:32:35.482Z,75.30
2017-11-01T15:35:03.701Z,75.60
2017-11-01T15:37:31.133Z,75.60
2017-11-01T15:39:58.561Z,75.70
2017-11-01T15:42:26.765Z,77.10
2017-11-01T15:44:54.201Z,77.00
2017-11-01T15:47:22.414Z,77.20
2017-11-01T15:49:49.860Z,77.20
2017-11-01T15:52:17.294Z,77.30
2017-11-01T15:54:45.492Z,77.40
2017-11-01T15:57:12.942Z,77.40
2017-11-01T15:59:42.421Z,78.10
2017-11-01T16:02:10.621Z,80.10
2017-11-01T16:04:38.055Z,80.10
2017-11-01T16:07:06.253Z,81.30
2017-11-01T16:09:33.680Z,81.30
2017-11-01T16:12:01.893Z,82.90
2017-11-01T16:14:29.325Z,82.90
2017-11-01T16:16:57.529Z,83.10
2017-11-01T16:19:24.953Z,83.10
2017-11-01T16:21:52.392Z,83.30
2017-11-01T16:24:19.826Z,83.60
2017-11-01T16:26:48.233Z,83.80
2017-11-01T16:29:16.718Z,84.10
2017-11-01T16:31:44.927Z,84.90
2017-11-01T16:34:12.355Z,84.90
2017-11-01T16:36:40.552Z,85.70
2017-11-01T16:39:07.980Z,85.70
2017-11-01T16:41:35.415Z,85.60
2017-11-01T16:44:02.889Z,85.70
2017-11-01T16:46:30.323Z,86.10
2017-11-01T16:48:57.835Z,87.20
2017-11-01T16:51:26.285Z,87.30
2017-11-01T16:53:53.727Z,87.30
2017-11-01T16:56:21.163Z,87.20
2017-11-01T16:58:48.615Z,87.30
2017-11-01T17:01:16.045Z,87.80
2017-11-01T17:03:43.484Z,88.70
2017-11-01T17:06:11.742Z,88.00
2017-11-01T17:08:39.204Z,88.00
2017-11-01T17:11:06.744Z,88.00
2017-11-01T17:13:34.184Z,88.30
2017-11-01T17:16:01.619Z,88.20
2017-11-01T17:18:29.053Z,89.20
2017-11-01T17:20:57.253Z,89.40
2017-11-01T17:23:24.692Z,89.40
2017-11-01T17:25:52.126Z,90.00
2017-11-01T17:28:19.574Z,90.00
2017-11-01T17:30:47.009Z,90.00
2017-11-01T17:33:15.429Z,89.70
2017-11-01T17:35:42.860Z,89.90
2017-11-01T17:38:10.304Z,89.70
2017-11-01T17:40:37.735Z,89.70
2017-11-01T17:43:05.181Z,90.00
2017-11-01T17:45:32.632Z,90.20
2017-11-01T17:48:00.070Z,89.70
2017-11-01T17:50:27.493Z,89.50
2017-11-01T17:52:54.942Z,89.50
2017-11-01T17:55:22.379Z,90.00
2017-11-01T17:57:49.818Z,90.40
2017-11-01T18:00:17.255Z,90.70
2017-11-01T18:02:45.454Z,90.20
2017-11-01T18:05:12.896Z,90.20
2017-11-01T18:07:40.345Z,90.30
2017-11-01T18:10:07.788Z,90.30
2017-11-01T18:12:35.240Z,90.40
2017-11-01T18:15:02.668Z,90.40
2017-11-01T18:17:31.120Z,90.50
2017-11-01T18:19:58.541Z,90.60
2017-11-01T18:22:26.748Z,90.90
2017-11-01T18:24:54.176Z,90.90
2017-11-01T18:27:22.381Z,91.50
2017-11-01T18:29:49.817Z,91.50
2017-11-01T18:32:18.013Z,91.40
2017-11-01T18:34:45.450Z,91.40
2017-11-01T18:37:13.642Z,92.00
2017-11-01T18:39:42.177Z,92.00
2017-11-01T18:42:09.644Z,92.00
2017-11-01T18:44:46.016Z,92.10
2017-11-01T18:47:15.416Z,92.20
2017-11-01T18:49:42.853Z,92.20
2017-11-01T18:52:18.586Z,92.20
2017-11-01T18:54:46.047Z,92.20
2017-11-01T18:57:13.932Z,92.20
2017-11-01T18:59:49.946Z,92.30
2017-11-01T19:02:17.456Z,92.30
2017-11-01T19:04:44.903Z,92.80
2017-11-01T19:07:15.369Z,92.90
2017-11-01T19:09:43.612Z,92.80
2017-11-01T19:12:15.757Z,92.80
2017-11-01T19:14:43.225Z,92.80
2017-11-01T19:17:10.686Z,92.90
2017-11-01T19:19:46.657Z,92.80
2017-11-01T19:22:14.097Z,92.80
2017-11-01T19:24:41.547Z,93.00
2017-11-01T19:27:09.021Z,93.10
2017-11-01T19:29:36.478Z,93.30
2017-11-01T19:32:03.925Z,93.20
2017-11-01T19:34:31.406Z,93.30
2017-11-01T19:36:58.866Z,93.20
2017-11-01T19:39:26.331Z,93.30
2017-11-01T19:41:53.771Z,93.60
2017-11-01T19:44:21.219Z,93.90
2017-11-01T19:46:48.686Z,94.00
2017-11-01T19:49:16.123Z,94.00
2017-11-01T19:57:35.905Z,93.80
2017-11-01T20:00:03.353Z,93.80
2017-11-01T20:02:31.565Z,93.80
2017-11-01T20:04:59.025Z,93.80
2017-11-01T20:07:26.472Z,94.10
2017-11-01T20:15:42.562Z,94.10
2017-11-01T20:18:16.781Z,94.50
2017-11-01T20:20:57.226Z,94.40
2017-11-01T20:23:24.710Z,94.70
2017-11-01T20:25:52.134Z,94.50
2017-11-01T20:28:36.733Z,94.60
2017-11-01T20:31:04.926Z,94.40
2017-11-01T20:33:45.494Z,94.40
2017-11-01T20:36:12.973Z,94.30
2017-11-01T20:38:40.421Z,94.30
2017-11-01T20:41:07.925Z,94.40
2017-11-01T20:43:36.157Z,94.30
2017-11-01T20:46:24.142Z,94.30
2017-11-01T20:48:52.370Z,94.30
2017-11-01T20:51:19.818Z,94.30
2017-11-01T20:53:47.266Z,94.50
2017-11-01T20:56:14.742Z,94.50
2017-11-01T20:58:42.201Z,94.60
2017-11-01T21:01:09.745Z,94.50
2017-11-01T21:03:37.173Z,94.70
2017-11-01T21:06:04.626Z,94.50
2017-11-01T21:08:32.880Z,94.20
2017-11-01T21:11:00.358Z,94.20
2017-11-01T21:13:28.571Z,94.10
2017-11-01T21:15:56.031Z,94.10
2017-11-01T21:18:23.489Z,94.10
2017-11-01T21:20:50.913Z,94.10
2017-11-01T21:23:18.447Z,94.20
2017-11-01T21:25:45.909Z,94.30
2017-11-01T21:28:15.227Z,94.30
2017-11-01T21:30:42.694Z,94.10
2017-11-01T21:33:10.121Z,94.30
2017-11-01T21:35:38.342Z,94.50
2017-11-01T21:38:05.953Z,94.20
2017-11-01T21:40:33.396Z,94.20
2017-11-01T21:43:00.833Z,94.10
2017-11-01T21:45:28.272Z,94.10
2017-11-01T21:47:55.754Z,94.10
2017-11-01T21:50:23.205Z,94.00
2017-11-01T21:52:50.625Z,94.00
2017-11-01T21:55:18.232Z,94.10
2017-11-01T21:57:45.676Z,94.30
2017-11-01T22:00:13.093Z,94.20
2017-11-01T22:02:40.553Z,94.20
2017-11-01T22:05:09.030Z,94.10
2017-11-01T22:07:37.235Z,94.20
2017-11-01T22:10:04.698Z,94.20
2017-11-01T22:12:32.140Z,94.20
2017-11-01T22:14:59.577Z,94.20
2017-11-01T22:17:27.005Z,94.20
2017-11-01T22:19:54.433Z,94.30
2017-11-01T22:22:21.857Z,94.40
2017-11-01T22:24:49.294Z,94.30
2017-11-01T22:27:17.485Z,94.50
2017-11-01T22:29:48.669Z,94.50
2017-11-01T22:32:16.101Z,94.60
2017-11-01T22:34:43.564Z,94.60
2017-11-01T22:37:11.081Z,94.70
2017-11-01T22:39:38.525Z,94.60
2017-11-01T22:42:05.963Z,94.60
2017-11-01T22:44:40.645Z,95.00
2017-11-01T22:47:08.093Z,94.80
2017-11-01T22:49:35.561Z,94.90
2017-11-01T22:52:03.003Z,94.70
2017-11-01T22:54:31.221Z,94.90
2017-11-01T22:56:58.668Z,94.80
2017-11-01T22:59:26.113Z,94.90
2017-11-01T23:01:53.550Z,94.90
2017-11-01T23:04:21.773Z,94.80
2017-11-01T23:06:49.220Z,94.80
2017-11-01T23:09:16.659Z,95.00
2017-11-01T23:11:44.087Z,94.90
2017-11-01T23:14:11.529Z,94.80
2017-11-01T23:16:39.059Z,94.80
2017-11-01T23:19:06.473Z,94.70
2017-11-01T23:21:34.705Z,94.90
2017-11-01T23:24:02.135Z,94.80
2017-11-01T23:26:29.573Z,94.90
2017-11-01T23:28:57.011Z,95.00
2017-11-01T23:31:25.252Z,94.70
2017-11-01T23:33:52.678Z,94.70
2017-11-01T23:36:20.154Z,94.70
2017-11-01T23:38:47.587Z,94.70
2017-11-01T23:41:15.017Z,94.80
2017-11-01T23:43:43.262Z,94.80
2017-11-01T23:46:10.705Z,94.70
2017-11-01T23:48:38.163Z,94.90
2017-11-01T23:51:05.702Z,94.90
2017-11-01T23:53:33.155Z,95.00
2017-11-01T23:56:00.646Z,95.10
2017-11-01T23:58:28.073Z,95.10
